sensor_id;sensor_type;location;lat;lon;timestamp;P1;durP1;ratioP1;P2;durP2;ratioP2
35907;SDS011;22003;50.320;8.054;2022-09-13T04:00:33;10.85;;;5.88;;
35907;SDS011;22003;50.320;8.054;2022-09-13T04:02:58;11.43;;;6.35;;
35907;SDS011;22003;50.320;8.054;2022-09-13T04:05:23;10.02;;;6.30;;
35907;SDS011;22003;50.320;8.054;2022-09-13T04:07:48;9.50;;;6.55;;
35907;SDS011;22003;50.320;8.054;2022-09-13T04:10:14;8.80;;;6.00;;
35907;SDS011;22003;50.320;8.054;2022-09-13T04:12:39;11.45;;;7.15;;
35907;SDS011;22003;50.320;8.054;2022-09-13T04:15:05;11.27;;;6.50;;
35907;SDS011;22003;50.320;8.054;2022-09-13T04:17:31;11.00;;;6.10;;
35907;SDS011;22003;50.320;8.054;2022-09-13T04:19:56;9.07;;;6.30;;
35907;SDS011;22003;50.320;8.054;2022-09-13T04:22:21;12.98;;;6.80;;
35907;SDS011;22003;50.320;8.054;2022-09-13T04:24:47;13.60;;;6.95;;
35907;SDS011;22003;50.320;8.054;2022-09-13T04:27:12;8.70;;;6.13;;
35907;SDS011;22003;50.320;8.054;2022-09-13T04:29:37;13.85;;;6.13;;
35907;SDS011;22003;50.320;8.054;2022-09-13T04:32:02;11.30;;;6.60;;
35907;SDS011;22003;50.320;8.054;2022-09-13T04:34:28;10.85;;;6.30;;
35907;SDS011;22003;50.320;8.054;2022-09-13T04:36:53;9.88;;;6.22;;
35907;SDS011;22003;50.320;8.054;2022-09-13T04:39:19;10.82;;;6.18;;
35907;SDS011;22003;50.320;8.054;2022-09-13T04:41:45;9.52;;;5.93;;
35907;SDS011;22003;50.320;8.054;2022-09-13T04:44:12;9.98;;;6.05;;
35907;SDS011;22003;50.320;8.054;2022-09-13T04:46:39;10.40;;;6.18;;
35907;SDS011;22003;50.320;8.054;2022-09-13T04:49:05;9.00;;;5.90;;
35907;SDS011;22003;50.320;8.054;2022-09-13T04:51:30;9.02;;;6.15;;
35907;SDS011;22003;50.320;8.054;2022-09-13T04:53:56;9.73;;;5.97;;
35907;SDS011;22003;50.320;8.054;2022-09-13T04:56:21;8.75;;;5.75;;
35907;SDS011;22003;50.320;8.054;2022-09-13T04:58:49;9.35;;;5.90;;
35907;SDS011;22003;50.320;8.054;2022-09-13T05:01:14;8.15;;;6.15;;
35907;SDS011;22003;50.320;8.054;2022-09-13T05:03:40;8.80;;;5.65;;
35907;SDS011;22003;50.320;8.054;2022-09-13T05:06:06;10.13;;;6.50;;
35907;SDS011;22003;50.320;8.054;2022-09-13T05:10:59;10.73;;;6.00;;
35907;SDS011;22003;50.320;8.054;2022-09-13T05:13:25;13.55;;;6.90;;
35907;SDS011;22003;50.320;8.054;2022-09-13T05:15:53;10.88;;;6.40;;
35907;SDS011;22003;50.320;8.054;2022-09-13T05:18:24;9.27;;;5.80;;
35907;SDS011;22003;50.320;8.054;2022-09-13T05:20:52;13.05;;;6.40;;
35907;SDS011;22003;50.320;8.054;2022-09-13T05:23:19;10.93;;;6.57;;
35907;SDS011;22003;50.320;8.054;2022-09-13T05:25:44;9.30;;;5.80;;
35907;SDS011;22003;50.320;8.054;2022-09-13T05:28:11;8.25;;;6.10;;
35907;SDS011;22003;50.320;8.054;2022-09-13T05:30:36;13.63;;;6.15;;
35907;SDS011;22003;50.320;8.054;2022-09-13T05:33:01;10.98;;;5.88;;
35907;SDS011;22003;50.320;8.054;2022-09-13T05:35:28;11.05;;;6.57;;
35907;SDS011;22003;50.320;8.054;2022-09-13T05:37:53;9.63;;;5.95;;
35907;SDS011;22003;50.320;8.054;2022-09-13T05:40:18;10.38;;;6.30;;
35907;SDS011;22003;50.320;8.054;2022-09-13T05:42:43;8.73;;;5.47;;
35907;SDS011;22003;50.320;8.054;2022-09-13T05:45:09;11.07;;;6.18;;
35907;SDS011;22003;50.320;8.054;2022-09-13T05:47:34;9.60;;;6.00;;
35907;SDS011;22003;50.320;8.054;2022-09-13T05:49:59;8.35;;;5.60;;
35907;SDS011;22003;50.320;8.054;2022-09-13T05:52:25;8.65;;;5.80;;
35907;SDS011;22003;50.320;8.054;2022-09-13T05:54:50;12.98;;;6.10;;
35907;SDS011;22003;50.320;8.054;2022-09-13T05:57:15;8.95;;;6.05;;
35907;SDS011;22003;50.320;8.054;2022-09-13T05:59:40;10.27;;;5.95;;
35907;SDS011;22003;50.320;8.054;2022-09-13T06:02:07;10.38;;;6.20;;
35907;SDS011;22003;50.320;8.054;2022-09-13T06:04:34;10.80;;;5.63;;
35907;SDS011;22003;50.320;8.054;2022-09-13T06:06:59;10.52;;;6.45;;
35907;SDS011;22003;50.320;8.054;2022-09-13T06:09:24;9.50;;;6.05;;
35907;SDS011;22003;50.320;8.054;2022-09-13T06:11:50;10.52;;;6.32;;
35907;SDS011;22003;50.320;8.054;2022-09-13T06:14:15;9.57;;;5.78;;
35907;SDS011;22003;50.320;8.054;2022-09-13T06:16:40;12.20;;;6.40;;
35907;SDS011;22003;50.320;8.054;2022-09-13T06:19:05;13.10;;;6.25;;
35907;SDS011;22003;50.320;8.054;2022-09-13T06:21:31;14.30;;;7.63;;
35907;SDS011;22003;50.320;8.054;2022-09-13T06:23:56;8.40;;;6.18;;
35907;SDS011;22003;50.320;8.054;2022-09-13T06:26:25;13.45;;;6.93;;
35907;SDS011;22003;50.320;8.054;2022-09-13T06:28:53;9.55;;;6.53;;
35907;SDS011;22003;50.320;8.054;2022-09-13T06:31:21;8.82;;;5.97;;
35907;SDS011;22003;50.320;8.054;2022-09-13T06:33:48;10.20;;;6.75;;
35907;SDS011;22003;50.320;8.054;2022-09-13T06:36:18;10.82;;;6.28;;
35907;SDS011;22003;50.320;8.054;2022-09-13T06:38:44;11.93;;;6.80;;
35907;SDS011;22003;50.320;8.054;2022-09-13T06:41:11;11.67;;;6.77;;
35907;SDS011;22003;50.320;8.054;2022-09-13T06:43:39;11.50;;;6.30;;
35907;SDS011;22003;50.320;8.054;2022-09-13T06:46:06;10.43;;;6.15;;
35907;SDS011;22003;50.320;8.054;2022-09-13T06:48:42;13.68;;;6.47;;
35907;SDS011;22003;50.320;8.054;2022-09-13T06:51:12;11.82;;;6.60;;
35907;SDS011;22003;50.320;8.054;2022-09-13T06:53:42;11.68;;;6.88;;
35907;SDS011;22003;50.320;8.054;2022-09-13T06:56:10;10.60;;;6.72;;
35907;SDS011;22003;50.320;8.054;2022-09-13T06:58:38;12.00;;;6.78;;
35907;SDS011;22003;50.320;8.054;2022-09-13T07:03:33;12.23;;;7.05;;
35907;SDS011;22003;50.320;8.054;2022-09-13T07:05:58;16.40;;;6.65;;
35907;SDS011;22003;50.320;8.054;2022-09-13T07:08:24;17.33;;;7.40;;
35907;SDS011;22003;50.320;8.054;2022-09-13T07:10:49;22.25;;;7.57;;
35907;SDS011;22003;50.320;8.054;2022-09-13T07:13:14;20.88;;;7.22;;
35907;SDS011;22003;50.320;8.054;2022-09-13T07:15:39;19.25;;;7.32;;
35907;SDS011;22003;50.320;8.054;2022-09-13T07:18:05;26.10;;;8.57;;
35907;SDS011;22003;50.320;8.054;2022-09-13T07:20:31;28.35;;;8.15;;
35907;SDS011;22003;50.320;8.054;2022-09-13T07:22:56;18.75;;;6.85;;
35907;SDS011;22003;50.320;8.054;2022-09-13T07:25:22;17.38;;;7.70;;
35907;SDS011;22003;50.320;8.054;2022-09-13T07:27:47;20.02;;;7.45;;
35907;SDS011;22003;50.320;8.054;2022-09-13T07:30:12;13.95;;;7.15;;
35907;SDS011;22003;50.320;8.054;2022-09-13T07:32:37;11.75;;;6.07;;
35907;SDS011;22003;50.320;8.054;2022-09-13T07:35:03;13.45;;;6.57;;
35907;SDS011;22003;50.320;8.054;2022-09-13T07:37:30;15.57;;;7.43;;
35907;SDS011;22003;50.320;8.054;2022-09-13T07:39:55;19.30;;;7.20;;
35907;SDS011;22003;50.320;8.054;2022-09-13T07:42:21;15.63;;;6.28;;
35907;SDS011;22003;50.320;8.054;2022-09-13T07:44:46;15.68;;;6.72;;
35907;SDS011;22003;50.320;8.054;2022-09-13T07:47:11;11.70;;;6.90;;
35907;SDS011;22003;50.320;8.054;2022-09-13T07:49:36;13.45;;;6.25;;
35907;SDS011;22003;50.320;8.054;2022-09-13T07:52:02;10.80;;;5.50;;
35907;SDS011;22003;50.320;8.054;2022-09-13T07:54:27;15.05;;;6.38;;
35907;SDS011;22003;50.320;8.054;2022-09-13T07:56:52;14.85;;;7.10;;
35907;SDS011;22003;50.320;8.054;2022-09-13T07:59:17;9.52;;;6.10;;
35907;SDS011;22003;50.320;8.054;2022-09-13T08:01:49;12.18;;;6.55;;
35907;SDS011;22003;50.320;8.054;2022-09-13T08:04:16;13.10;;;5.80;;
35907;SDS011;22003;50.320;8.054;2022-09-13T08:06:44;13.07;;;7.03;;
35907;SDS011;22003;50.320;8.054;2022-09-13T08:09:10;11.23;;;6.80;;
35907;SDS011;22003;50.320;8.054;2022-09-13T08:11:37;11.68;;;6.80;;
35907;SDS011;22003;50.320;8.054;2022-09-13T08:14:04;15.57;;;6.95;;
35907;SDS011;22003;50.320;8.054;2022-09-13T08:16:31;13.55;;;6.43;;
35907;SDS011;22003;50.320;8.054;2022-09-13T08:18:57;15.05;;;6.60;;
35907;SDS011;22003;50.320;8.054;2022-09-13T08:23:53;12.85;;;6.88;;
35907;SDS011;22003;50.320;8.054;2022-09-13T08:26:25;21.77;;;7.07;;
35907;SDS011;22003;50.320;8.054;2022-09-13T08:28:54;11.85;;;6.55;;
35907;SDS011;22003;50.320;8.054;2022-09-13T08:31:21;14.43;;;6.25;;
35907;SDS011;22003;50.320;8.054;2022-09-13T08:33:47;14.73;;;6.65;;
35907;SDS011;22003;50.320;8.054;2022-09-13T08:36:12;10.85;;;6.53;;
35907;SDS011;22003;50.320;8.054;2022-09-13T08:38:39;10.20;;;6.25;;
35907;SDS011;22003;50.320;8.054;2022-09-13T08:41:18;17.35;;;6.50;;
35907;SDS011;22003;50.320;8.054;2022-09-13T08:43:56;11.48;;;5.95;;
35907;SDS011;22003;50.320;8.054;2022-09-13T08:46:51;12.82;;;6.80;;
35907;SDS011;22003;50.320;8.054;2022-09-13T08:49:24;13.48;;;6.13;;
35907;SDS011;22003;50.320;8.054;2022-09-13T08:52:29;13.00;;;5.75;;
35907;SDS011;22003;50.320;8.054;2022-09-13T08:54:58;8.52;;;6.00;;
35907;SDS011;22003;50.320;8.054;2022-09-13T08:57:45;10.43;;;5.97;;
35907;SDS011;22003;50.320;8.054;2022-09-13T09:00:20;12.02;;;6.45;;
35907;SDS011;22003;50.320;8.054;2022-09-13T09:03:02;12.52;;;6.10;;
35907;SDS011;22003;50.320;8.054;2022-09-13T09:05:49;12.13;;;5.93;;
35907;SDS011;22003;50.320;8.054;2022-09-13T09:10:52;11.90;;;6.60;;
35907;SDS011;22003;50.320;8.054;2022-09-13T09:13:30;14.98;;;6.82;;
35907;SDS011;22003;50.320;8.054;2022-09-13T09:16:00;10.43;;;5.85;;
35907;SDS011;22003;50.320;8.054;2022-09-13T09:18:32;12.27;;;5.97;;
35907;SDS011;22003;50.320;8.054;2022-09-13T09:21:02;13.93;;;6.38;;
35907;SDS011;22003;50.320;8.054;2022-09-13T09:26:16;11.60;;;6.18;;
35907;SDS011;22003;50.320;8.054;2022-09-13T09:28:42;19.75;;;6.13;;
35907;SDS011;22003;50.320;8.054;2022-09-13T09:37:21;9.27;;;5.10;;
35907;SDS011;22003;50.320;8.054;2022-09-13T09:39:54;9.20;;;5.97;;
35907;SDS011;22003;50.320;8.054;2022-09-13T09:42:25;10.73;;;5.90;;
35907;SDS011;22003;50.320;8.054;2022-09-13T09:44:55;12.48;;;6.18;;
35907;SDS011;22003;50.320;8.054;2022-09-13T09:47:24;11.75;;;6.97;;
35907;SDS011;22003;50.320;8.054;2022-09-13T09:49:54;12.52;;;5.63;;
35907;SDS011;22003;50.320;8.054;2022-09-13T09:52:53;12.68;;;5.75;;
35907;SDS011;22003;50.320;8.054;2022-09-13T09:55:30;13.20;;;5.93;;
35907;SDS011;22003;50.320;8.054;2022-09-13T09:58:05;9.80;;;5.72;;
35907;SDS011;22003;50.320;8.054;2022-09-13T10:00:51;9.13;;;5.68;;
35907;SDS011;22003;50.320;8.054;2022-09-13T10:03:23;11.00;;;5.68;;
35907;SDS011;22003;50.320;8.054;2022-09-13T10:06:01;10.10;;;6.28;;
35907;SDS011;22003;50.320;8.054;2022-09-13T10:08:30;12.45;;;6.15;;
35907;SDS011;22003;50.320;8.054;2022-09-13T10:10:58;9.77;;;5.78;;
35907;SDS011;22003;50.320;8.054;2022-09-13T10:13:24;9.02;;;5.45;;
35907;SDS011;22003;50.320;8.054;2022-09-13T10:15:57;7.10;;;5.00;;
35907;SDS011;22003;50.320;8.054;2022-09-13T10:18:24;6.13;;;5.10;;
35907;SDS011;22003;50.320;8.054;2022-09-13T10:21:02;10.63;;;5.57;;
35907;SDS011;22003;50.320;8.054;2022-09-13T10:23:46;7.20;;;5.13;;
35907;SDS011;22003;50.320;8.054;2022-09-13T10:26:24;6.40;;;4.85;;
35907;SDS011;22003;50.320;8.054;2022-09-13T10:28:58;9.27;;;5.93;;
35907;SDS011;22003;50.320;8.054;2022-09-13T10:31:34;7.50;;;5.20;;
35907;SDS011;22003;50.320;8.054;2022-09-13T10:39:46;9.40;;;4.90;;
35907;SDS011;22003;50.320;8.054;2022-09-13T10:42:19;9.45;;;4.60;;
35907;SDS011;22003;50.320;8.054;2022-09-13T10:44:54;6.25;;;4.72;;
35907;SDS011;22003;50.320;8.054;2022-09-13T10:47:22;5.65;;;4.65;;
35907;SDS011;22003;50.320;8.054;2022-09-13T10:49:52;6.65;;;4.25;;
35907;SDS011;22003;50.320;8.054;2022-09-13T10:57:28;7.00;;;3.80;;
35907;SDS011;22003;50.320;8.054;2022-09-13T10:59:57;5.75;;;3.40;;
35907;SDS011;22003;50.320;8.054;2022-09-13T11:02:35;6.20;;;3.70;;
35907;SDS011;22003;50.320;8.054;2022-09-13T11:05:28;4.57;;;3.72;;
35907;SDS011;22003;50.320;8.054;2022-09-13T11:10:42;5.22;;;3.80;;
35907;SDS011;22003;50.320;8.054;2022-09-13T11:13:26;10.32;;;3.78;;
35907;SDS011;22003;50.320;8.054;2022-09-13T11:21:21;5.80;;;3.30;;
35907;SDS011;22003;50.320;8.054;2022-09-13T11:26:45;10.07;;;3.50;;
35907;SDS011;22003;50.320;8.054;2022-09-13T11:34:31;7.38;;;2.95;;
35907;SDS011;22003;50.320;8.054;2022-09-13T11:42:53;13.35;;;3.42;;
35907;SDS011;22003;50.320;8.054;2022-09-13T11:45:25;9.30;;;3.60;;
35907;SDS011;22003;50.320;8.054;2022-09-13T11:53:33;4.78;;;1.65;;
35907;SDS011;22003;50.320;8.054;2022-09-13T11:56:20;2.17;;;1.23;;
35907;SDS011;22003;50.320;8.054;2022-09-13T11:59:14;5.03;;;1.08;;
35907;SDS011;22003;50.320;8.054;2022-09-13T12:01:46;3.05;;;0.95;;
35907;SDS011;22003;50.320;8.054;2022-09-13T12:04:22;1.25;;;0.70;;
35907;SDS011;22003;50.320;8.054;2022-09-13T12:06:56;0.70;;;0.70;;
35907;SDS011;22003;50.320;8.054;2022-09-13T12:09:34;1.30;;;0.52;;
35907;SDS011;22003;50.320;8.054;2022-09-13T12:12:05;0.75;;;0.65;;
35907;SDS011;22003;50.320;8.054;2022-09-13T12:17:42;2.55;;;1.08;;
35907;SDS011;22003;50.320;8.054;2022-09-13T12:22:58;1.92;;;0.90;;
35907;SDS011;22003;50.320;8.054;2022-09-13T12:25:31;1.25;;;0.63;;
35907;SDS011;22003;50.320;8.054;2022-09-13T12:28:15;1.58;;;0.70;;
35907;SDS011;22003;50.320;8.054;2022-09-13T12:30:51;0.50;;;0.50;;
35907;SDS011;22003;50.320;8.054;2022-09-13T12:33:21;1.52;;;0.55;;
35907;SDS011;22003;50.320;8.054;2022-09-13T12:35:52;1.05;;;0.70;;
35907;SDS011;22003;50.320;8.054;2022-09-13T12:50:19;3.35;;;0.50;;
35907;SDS011;22003;50.320;8.054;2022-09-13T12:52:50;0.68;;;0.55;;
35907;SDS011;22003;50.320;8.054;2022-09-13T12:55:29;0.70;;;0.60;;
35907;SDS011;22003;50.320;8.054;2022-09-13T13:03:48;0.60;;;0.40;;
35907;SDS011;22003;50.320;8.054;2022-09-13T13:08:55;2.55;;;0.63;;
35907;SDS011;22003;50.320;8.054;2022-09-13T13:11:24;1.15;;;0.50;;
35907;SDS011;22003;50.320;8.054;2022-09-13T13:13:58;2.95;;;0.50;;
35907;SDS011;22003;50.320;8.054;2022-09-13T13:16:33;0.50;;;0.50;;
35907;SDS011;22003;50.320;8.054;2022-09-13T13:21:53;0.57;;;0.55;;
35907;SDS011;22003;50.320;8.054;2022-09-13T13:26:46;1.15;;;0.50;;
35907;SDS011;22003;50.320;8.054;2022-09-13T13:29:27;0.88;;;0.60;;
35907;SDS011;22003;50.320;8.054;2022-09-13T13:37:21;0.60;;;0.60;;
35907;SDS011;22003;50.320;8.054;2022-09-13T13:42:44;2.38;;;0.60;;
35907;SDS011;22003;50.320;8.054;2022-09-13T13:45:17;0.88;;;0.70;;
35907;SDS011;22003;50.320;8.054;2022-09-13T13:48:05;1.08;;;0.70;;
35907;SDS011;22003;50.320;8.054;2022-09-13T13:50:33;2.85;;;0.60;;
35907;SDS011;22003;50.320;8.054;2022-09-13T13:53:13;4.80;;;1.48;;
35907;SDS011;22003;50.320;8.054;2022-09-13T13:55:46;0.85;;;0.85;;
35907;SDS011;22003;50.320;8.054;2022-09-13T13:58:46;0.70;;;0.70;;
35907;SDS011;22003;50.320;8.054;2022-09-13T14:01:16;4.25;;;1.17;;
35907;SDS011;22003;50.320;8.054;2022-09-13T14:03:57;0.85;;;0.68;;
35907;SDS011;22003;50.320;8.054;2022-09-13T14:09:41;3.13;;;0.73;;
35907;SDS011;22003;50.320;8.054;2022-09-13T14:20:32;2.67;;;1.17;;
35907;SDS011;22003;50.320;8.054;2022-09-13T14:23:10;2.60;;;0.82;;
35907;SDS011;22003;50.320;8.054;2022-09-13T14:25:40;4.55;;;1.23;;
35907;SDS011;22003;50.320;8.054;2022-09-13T14:28:07;1.48;;;1.10;;
35907;SDS011;22003;50.320;8.054;2022-09-13T14:30:34;1.73;;;0.80;;
35907;SDS011;22003;50.320;8.054;2022-09-13T14:33:01;1.58;;;1.02;;
35907;SDS011;22003;50.320;8.054;2022-09-13T14:35:36;2.55;;;0.90;;
35907;SDS011;22003;50.320;8.054;2022-09-13T14:38:11;2.15;;;1.30;;
35907;SDS011;22003;50.320;8.054;2022-09-13T14:40:47;2.20;;;1.58;;
35907;SDS011;22003;50.320;8.054;2022-09-13T14:43:14;2.00;;;1.27;;
35907;SDS011;22003;50.320;8.054;2022-09-13T14:45:42;2.17;;;0.98;;
35907;SDS011;22003;50.320;8.054;2022-09-13T14:48:57;1.58;;;0.80;;
35907;SDS011;22003;50.320;8.054;2022-09-13T14:51:14;1.27;;;0.90;;
35907;SDS011;22003;50.320;8.054;2022-09-13T14:53:53;2.60;;;1.17;;
35907;SDS011;22003;50.320;8.054;2022-09-13T14:56:26;0.98;;;0.93;;
35907;SDS011;22003;50.320;8.054;2022-09-13T14:58:57;1.65;;;1.00;;
35907;SDS011;22003;50.320;8.054;2022-09-13T15:01:27;1.48;;;1.00;;
35907;SDS011;22003;50.320;8.054;2022-09-13T15:03:56;3.53;;;1.05;;
35907;SDS011;22003;50.320;8.054;2022-09-13T15:06:28;2.20;;;1.00;;
35907;SDS011;22003;50.320;8.054;2022-09-13T15:11:37;2.95;;;1.00;;
35907;SDS011;22003;50.320;8.054;2022-09-13T15:14:27;1.52;;;1.05;;
35907;SDS011;22003;50.320;8.054;2022-09-13T15:17:10;2.85;;;1.08;;
35907;SDS011;22003;50.320;8.054;2022-09-13T15:22:19;5.43;;;1.38;;
35907;SDS011;22003;50.320;8.054;2022-09-13T15:24:48;2.67;;;1.20;;
35907;SDS011;22003;50.320;8.054;2022-09-13T15:27:20;3.47;;;1.23;;
35907;SDS011;22003;50.320;8.054;2022-09-13T15:29:53;1.83;;;1.30;;
35907;SDS011;22003;50.320;8.054;2022-09-13T15:32:21;3.40;;;2.10;;
35907;SDS011;22003;50.320;8.054;2022-09-13T15:34:58;1.60;;;1.33;;
35907;SDS011;22003;50.320;8.054;2022-09-13T15:37:29;4.97;;;1.40;;
35907;SDS011;22003;50.320;8.054;2022-09-13T15:42:45;1.17;;;0.90;;
35907;SDS011;22003;50.320;8.054;2022-09-13T15:45:14;2.53;;;1.20;;
35907;SDS011;22003;50.320;8.054;2022-09-13T15:47:43;2.95;;;1.33;;
35907;SDS011;22003;50.320;8.054;2022-09-13T15:50:14;1.35;;;1.05;;
35907;SDS011;22003;50.320;8.054;2022-09-13T15:52:44;2.53;;;1.50;;
35907;SDS011;22003;50.320;8.054;2022-09-13T15:55:10;1.70;;;1.27;;
35907;SDS011;22003;50.320;8.054;2022-09-13T15:57:36;2.22;;;1.27;;
35907;SDS011;22003;50.320;8.054;2022-09-13T16:00:03;2.00;;;0.90;;
35907;SDS011;22003;50.320;8.054;2022-09-13T16:02:32;1.88;;;1.10;;
35907;SDS011;22003;50.320;8.054;2022-09-13T16:04:59;3.28;;;1.35;;
35907;SDS011;22003;50.320;8.054;2022-09-13T16:07:25;2.30;;;1.30;;
35907;SDS011;22003;50.320;8.054;2022-09-13T16:09:50;3.40;;;1.45;;
35907;SDS011;22003;50.320;8.054;2022-09-13T16:12:16;1.45;;;1.08;;
35907;SDS011;22003;50.320;8.054;2022-09-13T16:14:42;3.00;;;1.10;;
35907;SDS011;22003;50.320;8.054;2022-09-13T16:17:12;2.35;;;1.20;;
35907;SDS011;22003;50.320;8.054;2022-09-13T16:19:44;1.95;;;1.10;;
35907;SDS011;22003;50.320;8.054;2022-09-13T16:22:09;4.10;;;1.20;;
35907;SDS011;22003;50.320;8.054;2022-09-13T16:24:34;2.58;;;1.20;;
35907;SDS011;22003;50.320;8.054;2022-09-13T16:27:01;3.85;;;1.20;;
35907;SDS011;22003;50.320;8.054;2022-09-13T16:29:27;1.35;;;1.25;;
35907;SDS011;22003;50.320;8.054;2022-09-13T16:31:52;3.38;;;2.00;;
35907;SDS011;22003;50.320;8.054;2022-09-13T16:34:17;7.32;;;2.17;;
35907;SDS011;22003;50.320;8.054;2022-09-13T16:36:43;10.07;;;2.72;;
35907;SDS011;22003;50.320;8.054;2022-09-13T16:39:08;9.35;;;2.35;;
35907;SDS011;22003;50.320;8.054;2022-09-13T16:41:33;3.38;;;1.45;;
35907;SDS011;22003;50.320;8.054;2022-09-13T16:43:59;1.90;;;1.27;;
35907;SDS011;22003;50.320;8.054;2022-09-13T16:46:25;7.93;;;1.30;;
35907;SDS011;22003;50.320;8.054;2022-09-13T16:48:52;1.33;;;1.17;;
35907;SDS011;22003;50.320;8.054;2022-09-13T16:51:19;1.97;;;1.30;;
35907;SDS011;22003;50.320;8.054;2022-09-13T16:53:44;3.60;;;1.30;;
35907;SDS011;22003;50.320;8.054;2022-09-13T16:56:14;5.18;;;1.95;;
35907;SDS011;22003;50.320;8.054;2022-09-13T16:58:41;2.40;;;1.30;;
35907;SDS011;22003;50.320;8.054;2022-09-13T17:01:11;2.70;;;1.42;;
35907;SDS011;22003;50.320;8.054;2022-09-13T17:03:37;5.68;;;2.08;;
35907;SDS011;22003;50.320;8.054;2022-09-13T17:06:07;4.10;;;2.13;;
35907;SDS011;22003;50.320;8.054;2022-09-13T17:08:35;3.95;;;1.90;;
35907;SDS011;22003;50.320;8.054;2022-09-13T17:11:05;8.70;;;3.20;;
35907;SDS011;22003;50.320;8.054;2022-09-13T17:13:31;8.45;;;2.67;;
35907;SDS011;22003;50.320;8.054;2022-09-13T17:15:57;6.07;;;2.30;;
35907;SDS011;22003;50.320;8.054;2022-09-13T17:18:22;2.85;;;2.30;;
35907;SDS011;22003;50.320;8.054;2022-09-13T17:20:48;1.83;;;1.50;;
35907;SDS011;22003;50.320;8.054;2022-09-13T17:23:14;2.88;;;1.92;;
35907;SDS011;22003;50.320;8.054;2022-09-13T17:25:40;2.38;;;1.75;;
35907;SDS011;22003;50.320;8.054;2022-09-13T17:28:10;5.47;;;1.58;;
35907;SDS011;22003;50.320;8.054;2022-09-13T17:30:35;4.57;;;1.50;;
35907;SDS011;22003;50.320;8.054;2022-09-13T17:33:00;2.78;;;1.42;;
35907;SDS011;22003;50.320;8.054;2022-09-13T17:35:26;3.63;;;1.30;;
35907;SDS011;22003;50.320;8.054;2022-09-13T17:37:53;3.45;;;1.40;;
35907;SDS011;22003;50.320;8.054;2022-09-13T17:40:19;2.22;;;1.77;;
35907;SDS011;22003;50.320;8.054;2022-09-13T17:42:44;2.67;;;1.58;;
35907;SDS011;22003;50.320;8.054;2022-09-13T17:45:12;1.67;;;1.40;;
35907;SDS011;22003;50.320;8.054;2022-09-13T17:47:37;6.13;;;2.10;;
35907;SDS011;22003;50.320;8.054;2022-09-13T17:50:02;3.78;;;1.98;;
35907;SDS011;22003;50.320;8.054;2022-09-13T17:52:28;4.22;;;2.03;;
35907;SDS011;22003;50.320;8.054;2022-09-13T17:54:53;3.38;;;1.92;;
35907;SDS011;22003;50.320;8.054;2022-09-13T17:57:18;3.10;;;1.95;;
35907;SDS011;22003;50.320;8.054;2022-09-13T17:59:44;3.80;;;1.35;;
35907;SDS011;22003;50.320;8.054;2022-09-13T18:02:11;4.57;;;1.67;;
35907;SDS011;22003;50.320;8.054;2022-09-13T18:07:58;2.67;;;1.85;;
35907;SDS011;22003;50.320;8.054;2022-09-13T18:10:23;3.28;;;2.08;;
35907;SDS011;22003;50.320;8.054;2022-09-13T18:12:49;6.30;;;1.55;;
35907;SDS011;22003;50.320;8.054;2022-09-13T18:15:17;3.88;;;1.98;;
35907;SDS011;22003;50.320;8.054;2022-09-13T18:17:43;5.03;;;1.85;;
35907;SDS011;22003;50.320;8.054;2022-09-13T18:20:08;3.38;;;1.80;;
35907;SDS011;22003;50.320;8.054;2022-09-13T18:22:33;4.03;;;1.55;;
35907;SDS011;22003;50.320;8.054;2022-09-13T18:24:59;3.00;;;1.85;;
35907;SDS011;22003;50.320;8.054;2022-09-13T18:27:24;4.85;;;1.88;;
35907;SDS011;22003;50.320;8.054;2022-09-13T18:29:49;5.65;;;3.33;;
35907;SDS011;22003;50.320;8.054;2022-09-13T18:32:15;5.43;;;2.67;;
35907;SDS011;22003;50.320;8.054;2022-09-13T18:34:40;3.42;;;2.55;;
35907;SDS011;22003;50.320;8.054;2022-09-13T18:37:07;3.67;;;1.92;;
35907;SDS011;22003;50.320;8.054;2022-09-13T18:39:33;3.33;;;2.25;;
35907;SDS011;22003;50.320;8.054;2022-09-13T18:41:58;7.25;;;2.15;;
35907;SDS011;22003;50.320;8.054;2022-09-13T18:44:25;3.97;;;2.30;;
35907;SDS011;22003;50.320;8.054;2022-09-13T18:46:54;2.83;;;1.98;;
35907;SDS011;22003;50.320;8.054;2022-09-13T18:49:20;3.80;;;2.40;;
35907;SDS011;22003;50.320;8.054;2022-09-13T18:51:45;6.22;;;2.80;;
35907;SDS011;22003;50.320;8.054;2022-09-13T18:54:13;4.93;;;2.30;;
35907;SDS011;22003;50.320;8.054;2022-09-13T18:56:41;2.65;;;1.92;;
35907;SDS011;22003;50.320;8.054;2022-09-13T18:59:07;2.83;;;2.10;;
35907;SDS011;22003;50.320;8.054;2022-09-13T19:01:34;3.50;;;2.20;;
35907;SDS011;22003;50.320;8.054;2022-09-13T19:04:02;4.10;;;2.08;;
35907;SDS011;22003;50.320;8.054;2022-09-13T19:06:29;4.88;;;1.90;;
35907;SDS011;22003;50.320;8.054;2022-09-13T19:08:59;3.47;;;1.92;;
35907;SDS011;22003;50.320;8.054;2022-09-13T19:11:27;4.10;;;2.45;;
35907;SDS011;22003;50.320;8.054;2022-09-13T19:13:56;5.60;;;2.28;;
35907;SDS011;22003;50.320;8.054;2022-09-13T19:16:22;6.57;;;3.00;;
35907;SDS011;22003;50.320;8.054;2022-09-13T19:18:47;4.65;;;2.40;;
35907;SDS011;22003;50.320;8.054;2022-09-13T19:21:17;6.90;;;4.50;;
35907;SDS011;22003;50.320;8.054;2022-09-13T19:23:44;3.70;;;2.72;;
35907;SDS011;22003;50.320;8.054;2022-09-13T19:26:12;2.57;;;2.10;;
35907;SDS011;22003;50.320;8.054;2022-09-13T19:28:45;3.72;;;2.20;;
35907;SDS011;22003;50.320;8.054;2022-09-13T19:31:12;2.63;;;2.35;;
35907;SDS011;22003;50.320;8.054;2022-09-13T19:33:39;5.25;;;2.45;;
35907;SDS011;22003;50.320;8.054;2022-09-13T19:36:27;4.18;;;2.30;;
35907;SDS011;22003;50.320;8.054;2022-09-13T19:38:52;8.70;;;2.50;;
35907;SDS011;22003;50.320;8.054;2022-09-13T19:41:20;4.50;;;2.20;;
35907;SDS011;22003;50.320;8.054;2022-09-13T19:43:51;2.83;;;2.22;;
35907;SDS011;22003;50.320;8.054;2022-09-13T19:46:20;5.75;;;2.10;;
35907;SDS011;22003;50.320;8.054;2022-09-13T19:48:48;5.20;;;2.58;;
35907;SDS011;22003;50.320;8.054;2022-09-13T19:51:19;3.30;;;2.42;;
35907;SDS011;22003;50.320;8.054;2022-09-13T19:53:46;3.90;;;2.25;;
35907;SDS011;22003;50.320;8.054;2022-09-13T19:56:18;5.32;;;2.28;;
35907;SDS011;22003;50.320;8.054;2022-09-13T19:58:46;3.75;;;2.42;;
35907;SDS011;22003;50.320;8.054;2022-09-13T20:01:13;3.72;;;2.50;;
35907;SDS011;22003;50.320;8.054;2022-09-13T20:03:41;2.78;;;2.10;;
35907;SDS011;22003;50.320;8.054;2022-09-13T20:06:08;5.43;;;2.95;;
35907;SDS011;22003;50.320;8.054;2022-09-13T20:08:35;6.20;;;2.80;;
35907;SDS011;22003;50.320;8.054;2022-09-13T20:11:06;10.43;;;3.95;;
35907;SDS011;22003;50.320;8.054;2022-09-13T20:13:35;4.07;;;3.08;;
35907;SDS011;22003;50.320;8.054;2022-09-13T20:19:24;6.50;;;2.92;;
35907;SDS011;22003;50.320;8.054;2022-09-13T20:21:50;6.88;;;2.97;;
35907;SDS011;22003;50.320;8.054;2022-09-13T20:24:16;3.35;;;2.88;;
35907;SDS011;22003;50.320;8.054;2022-09-13T20:26:42;5.18;;;3.17;;
35907;SDS011;22003;50.320;8.054;2022-09-13T20:29:08;4.85;;;3.40;;
35907;SDS011;22003;50.320;8.054;2022-09-13T20:31:34;5.85;;;3.67;;
35907;SDS011;22003;50.320;8.054;2022-09-13T20:34:01;5.97;;;3.55;;
35907;SDS011;22003;50.320;8.054;2022-09-13T20:36:30;6.22;;;2.75;;
35907;SDS011;22003;50.320;8.054;2022-09-13T20:38:56;6.28;;;2.88;;
35907;SDS011;22003;50.320;8.054;2022-09-13T20:41:23;3.28;;;2.60;;
35907;SDS011;22003;50.320;8.054;2022-09-13T20:43:49;6.38;;;3.03;;
35907;SDS011;22003;50.320;8.054;2022-09-13T20:46:15;5.78;;;2.85;;
35907;SDS011;22003;50.320;8.054;2022-09-13T20:48:42;3.00;;;2.30;;
35907;SDS011;22003;50.320;8.054;2022-09-13T20:51:15;5.97;;;2.90;;
35907;SDS011;22003;50.320;8.054;2022-09-13T20:53:42;3.45;;;2.30;;
35907;SDS011;22003;50.320;8.054;2022-09-13T20:56:11;4.05;;;2.90;;
35907;SDS011;22003;50.320;8.054;2022-09-13T20:58:39;6.22;;;3.05;;